Time;durP1;ratioP1;P1;durP2;ratioP2;P2;SDS_P1;SDS_P2;PMS_P1;PMS_P2;Temp;Humidity;BMP_temperature;BMP_pressure;BME280_temperature;BME280_humidity;BME280_pressure;Samples;Min_cycle;Max_cycle;Signal;HPM_P1;HPM_P2
2021/06/24 00:02:17;;;;;;;0.00;0.00;;;19.20;67.90;;;;;;4206930;28;20050;-48
2021/06/24 00:04:39;;;;;;;0.00;0.00;;;19.20;67.90;;;;;;4207605;28;20072;-47
2021/06/24 00:07:01;;;;;;;0.00;0.00;;;19.20;67.90;;;;;;4206900;28;20044;-49
2021/06/24 00:09:24;;;;;;;0.00;0.00;;;19.20;68.00;;;;;;4207774;28;20153;-46
2021/06/24 00:11:47;;;;;;;0.00;0.00;;;19.20;68.00;;;;;;4207542;28;20048;-47
2021/06/24 00:14:09;;;;;;;0.00;0.00;;;19.20;68.10;;;;;;4191149;28;20064;-49
2021/06/24 00:16:31;;;;;;;2.55;1.00;;;19.20;68.10;;;;;;4190905;28;20063;-47
2021/06/24 00:18:54;;;;;;;0.70;0.55;;;19.20;68.20;;;;;;4191291;28;20049;-50
2021/06/24 00:21:17;;;;;;;0.32;0.32;;;19.20;69.00;;;;;;4193198;28;20052;-53
2021/06/24 00:23:39;;;;;;;0.10;0.10;;;19.20;68.20;;;;;;4211098;28;20460;-49
2021/06/24 00:26:03;;;;;;;0.00;0.00;;;19.10;68.10;;;;;;4211076;28;20517;-52
2021/06/24 00:28:27;;;;;;;0.00;0.00;;;19.20;68.30;;;;;;4211031;28;20044;-52
2021/06/24 00:30:51;;;;;;;0.00;0.00;;;19.10;68.20;;;;;;4210697;28;20068;-52
2021/06/24 00:33:14;;;;;;;0.00;0.00;;;19.10;68.30;;;;;;4210423;28;20044;-52
2021/06/24 00:35:37;;;;;;;0.10;0.10;;;19.10;68.30;;;;;;4211102;28;20044;-47
2021/06/24 00:37:59;;;;;;;0.00;0.00;;;19.10;68.30;;;;;;4209480;28;20067;-48
2021/06/24 00:40:22;;;;;;;0.00;0.00;;;19.10;68.30;;;;;;4211021;28;20040;-46
2021/06/24 00:42:46;;;;;;;0.10;0.10;;;19.10;68.40;;;;;;4208894;28;20054;-46
2021/06/24 00:45:11;;;;;;;0.13;0.13;;;19.10;68.40;;;;;;4210892;28;20113;-46
2021/06/24 00:47:33;;;;;;;0.00;0.00;;;19.10;68.40;;;;;;4210456;28;20475;-47
2021/06/24 00:49:56;;;;;;;0.00;0.00;;;19.10;68.40;;;;;;4192511;28;20049;-51
2021/06/24 00:52:18;;;;;;;0.00;0.00;;;19.10;68.50;;;;;;4202350;28;20052;-48
2021/06/24 00:54:41;;;;;;;0.00;0.00;;;19.10;68.60;;;;;;4192315;28;20086;-46
2021/06/24 00:57:03;;;;;;;0.00;0.00;;;19.10;69.50;;;;;;4193869;28;20657;-48
2021/06/24 00:59:27;;;;;;;0.00;0.00;;;19.10;68.60;;;;;;4192435;28;20052;-49
2021/06/24 01:01:50;;;;;;;0.00;0.00;;;19.10;68.60;;;;;;4209387;28;20101;-49
2021/06/24 01:04:13;;;;;;;0.00;0.00;;;19.10;68.70;;;;;;4210424;28;20051;-48
2021/06/24 01:06:36;;;;;;;0.00;0.00;;;19.10;68.70;;;;;;4207316;28;20051;-47
2021/06/24 01:08:59;;;;;;;0.00;0.00;;;19.10;68.70;;;;;;4210281;28;20391;-50
2021/06/24 01:11:21;;;;;;;0.00;0.00;;;19.10;68.80;;;;;;4210415;28;20048;-47
2021/06/24 01:13:44;;;;;;;0.00;0.00;;;19.10;68.80;;;;;;4209674;28;20139;-46
2021/06/24 01:16:07;;;;;;;0.03;0.03;;;19.10;68.80;;;;;;4210361;28;20135;-48
2021/06/24 01:18:29;;;;;;;0.00;0.00;;;19.10;68.90;;;;;;4191543;28;20180;-48
2021/06/24 01:20:54;;;;;;;0.00;0.00;;;19.10;68.90;;;;;;4194346;28;20040;-48
2021/06/24 01:23:17;;;;;;;0.00;0.00;;;19.10;68.90;;;;;;4209357;28;20054;-48
2021/06/24 01:25:40;;;;;;;0.00;0.00;;;19.10;69.00;;;;;;4205323;28;20085;-49
2021/06/24 01:28:06;;;;;;;0.00;0.00;;;19.10;69.00;;;;;;4208193;28;20097;-49
2021/06/24 01:30:29;;;;;;;0.00;0.00;;;19.00;69.00;;;;;;4210290;28;20132;-48
2021/06/24 01:32:52;;;;;;;0.00;0.00;;;19.10;69.10;;;;;;4208131;28;20098;-48
2021/06/24 01:35:15;;;;;;;0.10;0.10;;;19.00;69.00;;;;;;4207717;28;20072;-47
2021/06/24 01:37:38;;;;;;;0.10;0.10;;;19.00;69.90;;;;;;4208152;28;20453;-48
2021/06/24 01:40:00;;;;;;;0.20;0.20;;;19.00;69.40;;;;;;4207001;28;20048;-46
2021/06/24 01:42:28;;;;;;;0.10;0.10;;;19.00;69.10;;;;;;4207916;28;20721;-47
2021/06/24 01:44:50;;;;;;;0.00;0.00;;;19.00;69.10;;;;;;4190925;28;20075;-50
2021/06/24 01:47:13;;;;;;;0.00;0.00;;;19.00;69.30;;;;;;4205083;28;20047;-47
2021/06/24 01:49:35;;;;;;;0.00;0.00;;;19.00;69.30;;;;;;4207144;28;20048;-50
2021/06/24 01:51:59;;;;;;;0.00;0.00;;;19.00;69.30;;;;;;4208689;28;20448;-47
2021/06/24 01:54:22;;;;;;;0.22;0.22;;;19.00;69.30;;;;;;4208634;28;20051;-46
2021/06/24 01:56:44;;;;;;;0.10;0.10;;;19.00;69.30;;;;;;4209146;28;20036;-46
2021/06/24 01:59:08;;;;;;;0.00;0.00;;;19.00;69.40;;;;;;4206968;28;20054;-50
2021/06/24 02:01:56;;;;;;;0.00;0.00;;;19.00;69.40;;;;;;4206759;28;20051;-46
2021/06/24 02:04:44;;;;;;;0.00;0.00;;;19.00;69.40;;;;;;4176439;28;20094;-46
2021/06/24 02:07:06;;;;;;;0.00;0.00;;;19.00;69.60;;;;;;4185765;28;20106;-48
2021/06/24 02:09:49;;;;;;;0.00;0.00;;;19.00;69.50;;;;;;4208291;28;20421;-45
2021/06/24 02:12:12;;;;;;;0.20;0.20;;;19.00;69.60;;;;;;4206739;28;20052;-46
2021/06/24 02:14:45;;;;;;;0.10;0.10;;;19.00;69.60;;;;;;4206725;28;20052;-46
2021/06/24 02:17:09;;;;;;;0.00;0.00;;;19.00;69.60;;;;;;4190433;28;20473;-50
2021/06/24 02:19:31;;;;;;;0.00;0.00;;;19.00;70.50;;;;;;4198617;28;20168;-51
2021/06/24 02:22:07;;;;;;;0.00;0.00;;;19.00;69.60;;;;;;4206508;28;20454;-49
2021/06/24 02:24:36;;;;;;;0.00;0.00;;;19.00;69.60;;;;;;4201189;28;20456;-47
2021/06/24 02:27:00;;;;;;;0.00;0.00;;;19.00;69.70;;;;;;4207052;28;20071;-47
2021/06/24 02:29:42;;;;;;;0.00;0.00;;;19.00;69.70;;;;;;4208023;28;20048;-48
2021/06/24 02:32:07;;;;;;;0.00;0.00;;;19.00;69.70;;;;;;4160496;28;1257649;-51
2021/06/24 02:34:46;;;;;;;0.00;0.00;;;19.00;69.70;;;;;;4160207;28;20057;-46
2021/06/24 02:37:34;;;;;;;0.00;0.00;;;19.00;69.80;;;;;;4191978;28;20072;-47
2021/06/24 02:40:23;;;;;;;0.00;0.00;;;19.00;69.90;;;;;;4188571;28;20055;-49
2021/06/24 02:42:46;;;;;;;0.00;0.00;;;18.90;69.80;;;;;;4197084;28;20046;-47
2021/06/24 02:45:11;;;;;;;0.00;0.00;;;19.00;69.90;;;;;;4203950;28;20441;-46
2021/06/24 02:47:35;;;;;;;0.20;0.20;;;18.90;69.90;;;;;;4195014;28;20048;-46
2021/06/24 02:49:57;;;;;;;0.00;0.00;;;19.00;70.00;;;;;;4208441;28;20080;-50
2021/06/24 02:52:21;;;;;;;0.00;0.00;;;18.90;69.90;;;;;;4206898;28;21884;-49
2021/06/24 02:54:44;;;;;;;0.00;0.00;;;18.90;70.00;;;;;;4208694;28;20044;-49
2021/06/24 02:57:07;;;;;;;0.00;0.00;;;18.90;70.00;;;;;;4208826;28;20044;-46
2021/06/24 02:59:48;;;;;;;;;;;18.90;70.10;;;;;;4208423;28;20066;-47
2021/06/24 03:02:11;;;;;;;0.00;0.00;;;18.90;70.30;;;;;;4208570;28;19931;-48
2021/06/24 03:04:37;;;;;;;0.00;0.00;;;18.90;70.30;;;;;;4207284;28;20580;-45
2021/06/24 03:07:01;;;;;;;0.00;0.00;;;18.90;70.30;;;;;;4208656;28;20044;-47
2021/06/24 03:09:29;;;;;;;0.00;0.00;;;18.90;71.10;;;;;;4208046;28;20048;-46
2021/06/24 03:11:51;;;;;;;0.00;0.00;;;18.90;70.30;;;;;;4208351;28;20498;-46
2021/06/24 03:14:15;;;;;;;0.00;0.00;;;18.90;70.30;;;;;;4221364;28;20126;-50
2021/06/24 03:16:39;;;;;;;0.00;0.00;;;18.90;71.20;;;;;;4208590;28;20071;-45
2021/06/24 03:19:03;;;;;;;0.00;0.00;;;18.90;70.30;;;;;;4196357;28;20105;-46
2021/06/24 03:21:27;;;;;;;0.00;0.00;;;18.90;70.30;;;;;;4218641;28;20391;-46
2021/06/24 03:23:50;;;;;;;0.13;0.13;;;18.90;70.30;;;;;;4206627;28;20052;-47
2021/06/24 03:26:13;;;;;;;0.08;0.08;;;18.90;70.40;;;;;;4208435;28;20478;-44
2021/06/24 03:28:37;;;;;;;0.00;0.00;;;18.90;70.40;;;;;;4206581;28;20510;-47
2021/06/24 03:31:14;;;;;;;0.00;0.00;;;18.90;70.40;;;;;;4207623;28;20786;-45
2021/06/24 03:33:35;;;;;;;0.40;0.40;;;18.90;70.50;;;;;;4207735;28;20421;-48
2021/06/24 03:35:59;;;;;;;0.65;0.65;;;18.90;70.50;;;;;;4207028;28;20062;-45
2021/06/24 03:38:23;;;;;;;0.10;0.10;;;18.90;70.50;;;;;;4207687;28;20414;-47
2021/06/24 03:40:48;;;;;;;0.00;0.00;;;18.90;70.40;;;;;;4207845;28;20477;-48
2021/06/24 03:43:10;;;;;;;0.20;0.20;;;18.90;70.40;;;;;;4203536;28;20551;-50
2021/06/24 03:45:32;;;;;;;0.03;0.03;;;18.90;70.40;;;;;;4191493;28;20080;-46
2021/06/24 03:47:54;;;;;;;0.00;0.00;;;18.90;70.50;;;;;;4201097;28;20068;-48
2021/06/24 03:50:18;;;;;;;0.00;0.00;;;18.90;70.50;;;;;;4206582;28;20078;-51
2021/06/24 03:52:42;;;;;;;0.45;0.45;;;18.90;70.50;;;;;;4208118;28;20050;-45
2021/06/24 03:55:07;;;;;;;0.20;0.20;;;18.90;70.50;;;;;;4207439;28;20044;-47
2021/06/24 03:57:49;;;;;;;0.60;0.30;;;18.90;70.50;;;;;;4206593;28;20429;-47
2021/06/24 04:00:17;;;;;;;0.00;0.00;;;18.90;70.60;;;;;;4190865;28;20064;-48
2021/06/24 04:02:39;;;;;;;0.25;0.25;;;18.90;70.60;;;;;;4200203;28;20048;-48
2021/06/24 04:05:02;;;;;;;0.10;0.10;;;18.90;70.60;;;;;;4206697;28;20052;-48
2021/06/24 04:07:28;;;;;;;0.00;0.00;;;18.90;70.60;;;;;;4206448;28;20176;-46
2021/06/24 04:09:50;;;;;;;0.10;0.10;;;18.90;70.60;;;;;;4206160;28;20048;-50
2021/06/24 04:12:13;;;;;;;0.00;0.00;;;18.90;70.70;;;;;;4207578;28;20055;-48
2021/06/24 04:15:02;;;;;;;0.00;0.00;;;18.90;70.70;;;;;;4207680;28;20048;-48
2021/06/24 04:17:28;;;;;;;0.00;0.00;;;18.90;70.70;;;;;;4206067;28;20071;-49
2021/06/24 04:19:50;;;;;;;0.00;0.00;;;18.90;70.80;;;;;;4197560;28;20056;-50
2021/06/24 04:22:12;;;;;;;0.98;0.95;;;18.90;70.90;;;;;;4206320;28;20043;-52
2021/06/24 04:24:54;;;;;;;0.00;0.00;;;18.90;70.80;;;;;;4207254;28;20067;-50
2021/06/24 04:27:18;;;;;;;0.00;0.00;;;18.90;70.80;;;;;;4207722;28;20071;-52
2021/06/24 04:29:40;;;;;;;0.00;0.00;;;18.90;70.90;;;;;;4207564;28;20052;-51
2021/06/24 04:32:02;;;;;;;0.00;0.00;;;18.90;70.80;;;;;;4207214;28;20059;-50
2021/06/24 04:34:24;;;;;;;0.00;0.00;;;18.90;70.90;;;;;;4206226;28;20048;-51
2021/06/24 04:36:57;;;;;;;0.00;0.00;;;18.90;70.90;;;;;;4206900;28;20056;-48
2021/06/24 04:39:26;;;;;;;0.00;0.00;;;18.80;70.80;;;;;;4207488;28;20044;-47
2021/06/24 04:41:57;;;;;;;0.75;0.40;;;18.90;70.90;;;;;;4205642;28;20054;-51
2021/06/24 04:44:21;;;;;;;0.00;0.00;;;18.90;70.90;;;;;;4207651;28;20040;-49
2021/06/24 04:46:44;;;;;;;0.00;0.00;;;18.90;70.90;;;;;;4205813;28;20043;-48
2021/06/24 04:49:08;;;;;;;0.00;0.00;;;18.90;71.10;;;;;;4206140;28;20525;-49
2021/06/24 04:51:36;;;;;;;0.00;0.00;;;18.90;71.10;;;;;;4207179;28;20059;-49
2021/06/24 04:53:59;;;;;;;0.00;0.00;;;18.80;71.10;;;;;;4205902;28;20082;-49
2021/06/24 04:56:25;;;;;;;0.00;0.00;;;18.80;71.10;;;;;;4195944;28;20048;-47
2021/06/24 04:58:46;;;;;;;0.00;0.00;;;18.80;71.10;;;;;;4207517;28;20051;-52
2021/06/24 05:01:33;;;;;;;0.20;0.20;;;18.80;71.20;;;;;;4185653;28;20052;-47
2021/06/24 05:04:14;;;;;;;0.80;0.57;;;18.80;71.30;;;;;;4190480;28;20434;-45
2021/06/24 05:06:36;;;;;;;0.00;0.00;;;18.80;71.40;;;;;;4196786;28;20055;-46
2021/06/24 05:08:59;;;;;;;0.00;0.00;;;18.80;71.40;;;;;;4210241;28;20075;-46
2021/06/24 05:11:22;;;;;;;0.15;0.15;;;18.80;71.50;;;;;;4210455;28;20410;-48
2021/06/24 05:13:44;;;;;;;0.10;0.10;;;18.80;78.20;;;;;;4210191;28;20405;-46
2021/06/24 05:16:06;;;;;;;0.00;0.00;;;18.90;81.40;;;;;;4210390;28;20048;-45
2021/06/24 05:18:30;;;;;;;0.08;0.08;;;18.90;82.90;;;;;;4193673;28;20371;-45
2021/06/24 05:20:52;;;;;;;0.00;0.00;;;18.90;83.00;;;;;;4193351;28;20044;-45
2021/06/24 05:23:16;;;;;;;0.30;0.30;;;18.90;82.70;;;;;;4202733;28;20043;-50
2021/06/24 05:25:39;;;;;;;0.00;0.00;;;18.90;81.20;;;;;;4193458;28;20414;-45
2021/06/24 05:28:01;;;;;;;0.00;0.00;;;18.90;81.00;;;;;;4192974;28;20072;-47
2021/06/24 05:30:24;;;;;;;0.00;0.00;;;19.00;80.20;;;;;;4193561;28;20057;-48
2021/06/24 05:32:46;;;;;;;0.20;0.20;;;19.00;79.60;;;;;;4206082;28;20048;-48
2021/06/24 05:35:10;;;;;;;0.00;0.00;;;19.00;79.00;;;;;;4210178;28;20504;-50
2021/06/24 05:37:32;;;;;;;13.70;1.70;;;19.00;78.60;;;;;;4204443;28;20040;-47
2021/06/24 05:39:54;;;;;;;0.00;0.00;;;19.00;78.10;;;;;;4209935;28;20079;-49
2021/06/24 05:42:16;;;;;;;0.00;0.00;;;19.00;77.60;;;;;;4209859;28;20409;-45
2021/06/24 05:44:38;;;;;;;0.00;0.00;;;19.00;77.30;;;;;;4210088;28;20093;-47
2021/06/24 05:47:01;;;;;;;0.00;0.00;;;19.00;77.00;;;;;;4209922;28;20048;-45
2021/06/24 05:49:25;;;;;;;0.47;0.47;;;19.00;76.80;;;;;;4209703;28;20121;-47
2021/06/24 05:51:49;;;;;;;0.20;0.20;;;19.00;76.40;;;;;;4193304;28;20052;-46
2021/06/24 05:54:11;;;;;;;0.00;0.00;;;18.90;76.10;;;;;;4202333;28;20128;-46
2021/06/24 05:56:33;;;;;;;0.00;0.00;;;18.90;75.80;;;;;;4209596;28;20048;-47
2021/06/24 05:58:56;;;;;;;0.90;0.90;;;18.90;75.60;;;;;;4207981;28;20128;-47
2021/06/24 06:01:20;;;;;;;1.02;0.88;;;18.90;75.30;;;;;;4209043;28;20052;-49
2021/06/24 06:03:42;;;;;;;0.00;0.00;;;18.90;75.20;;;;;;4199721;28;20049;-48
2021/06/24 06:06:05;;;;;;;0.00;0.00;;;18.90;74.90;;;;;;4198399;28;20469;-45
2021/06/24 06:08:30;;;;;;;0.00;0.00;;;18.90;74.80;;;;;;4208620;28;20048;-50
2021/06/24 06:10:53;;;;;;;0.10;0.10;;;18.90;74.50;;;;;;4209136;28;20052;-49
2021/06/24 06:13:19;;;;;;;0.65;0.65;;;18.90;74.30;;;;;;4209260;28;20559;-46
2021/06/24 06:15:43;;;;;;;0.00;0.00;;;18.90;74.20;;;;;;4209468;28;20052;-49
2021/06/24 06:18:11;;;;;;;0.08;0.08;;;18.90;74.00;;;;;;4208526;28;20052;-46
2021/06/24 06:20:33;;;;;;;0.00;0.00;;;18.90;73.80;;;;;;4221373;28;20055;-50
2021/06/24 06:22:55;;;;;;;0.00;0.00;;;18.90;73.80;;;;;;4207235;28;20537;-49
2021/06/24 06:25:18;;;;;;;0.08;0.08;;;18.90;73.70;;;;;;4209379;28;20217;-48
2021/06/24 06:27:41;;;;;;;0.00;0.00;;;18.90;73.70;;;;;;4208525;28;20109;-54
2021/06/24 06:30:03;;;;;;;0.00;0.00;;;18.90;73.70;;;;;;4209329;28;20044;-49
2021/06/24 06:32:25;;;;;;;0.00;0.00;;;18.90;73.70;;;;;;4204281;28;20059;-49
2021/06/24 06:34:47;;;;;;;0.00;0.00;;;18.90;73.80;;;;;;4208653;28;20068;-51
2021/06/24 06:37:10;;;;;;;0.00;0.00;;;18.90;73.80;;;;;;4208539;28;20056;-54
2021/06/24 06:39:34;;;;;;;0.13;0.13;;;18.90;74.50;;;;;;4208972;28;20485;-53
2021/06/24 06:41:58;;;;;;;0.17;0.17;;;19.00;73.60;;;;;;4205101;28;20052;-51
2021/06/24 06:44:20;;;;;;;0.00;0.00;;;18.90;73.40;;;;;;4199792;28;20159;-54
2021/06/24 06:46:42;;;;;;;4.90;1.08;;;19.00;73.30;;;;;;4208761;28;20056;-52
2021/06/24 06:49:04;;;;;;;0.00;0.00;;;19.00;73.70;;;;;;4208670;28;20558;-48
2021/06/24 06:51:26;;;;;;;0.00;0.00;;;19.00;74.00;;;;;;4191923;28;20075;-50
2021/06/24 06:53:48;;;;;;;0.00;0.00;;;19.10;74.50;;;;;;4192249;28;20040;-52
2021/06/24 06:56:11;;;;;;;0.00;0.00;;;19.10;73.80;;;;;;4193699;28;20048;-52
2021/06/24 06:58:34;;;;;;;0.00;0.00;;;19.20;73.40;;;;;;4208519;28;20486;-51
2021/06/24 07:00:57;;;;;;;0.00;0.00;;;19.20;73.10;;;;;;4208194;28;20074;-52
2021/06/24 07:03:19;;;;;;;0.10;0.10;;;19.10;72.80;;;;;;4208162;28;20142;-54
2021/06/24 07:05:42;;;;;;;0.00;0.00;;;19.10;72.60;;;;;;4208733;28;20486;-47
2021/06/24 07:08:04;;;;;;;0.10;0.10;;;19.10;72.50;;;;;;4208321;28;20127;-50
2021/06/24 07:10:27;;;;;;;0.13;0.13;;;19.10;72.40;;;;;;4202461;28;20044;-48
2021/06/24 07:12:50;;;;;;;0.28;0.28;;;19.10;72.40;;;;;;4208563;28;20112;-50
2021/06/24 07:15:14;;;;;;;0.00;0.00;;;19.10;72.30;;;;;;4208393;28;20048;-48
2021/06/24 07:17:37;;;;;;;0.00;0.00;;;19.10;72.20;;;;;;4206966;28;20048;-51
2021/06/24 07:19:59;;;;;;;1.20;1.08;;;19.10;72.20;;;;;;4208263;28;20052;-52
2021/06/24 07:22:22;;;;;;;0.08;0.08;;;19.10;72.10;;;;;;4208475;28;20494;-49
2021/06/24 07:24:45;;;;;;;0.90;0.90;;;19.10;72.10;;;;;;4207849;28;20498;-48
2021/06/24 07:27:07;;;;;;;0.00;0.00;;;19.10;72.00;;;;;;4202120;28;20478;-50
2021/06/24 07:29:29;;;;;;;0.00;0.00;;;19.20;71.80;;;;;;4208556;28;20113;-52
2021/06/24 07:31:53;;;;;;;0.10;0.10;;;19.20;71.70;;;;;;4208161;28;20486;-51
2021/06/24 07:34:15;;;;;;;0.00;0.00;;;19.20;71.40;;;;;;4208442;28;20055;-50
2021/06/24 07:36:39;;;;;;;0.00;0.00;;;19.20;71.20;;;;;;4207936;28;20127;-52
2021/06/24 07:39:01;;;;;;;0.00;0.00;;;19.20;71.20;;;;;;4207862;28;20391;-52
2021/06/24 07:41:24;;;;;;;0.00;0.00;;;19.20;71.20;;;;;;4208277;28;20433;-53
2021/06/24 07:43:46;;;;;;;0.00;0.00;;;19.20;71.10;;;;;;4208112;28;20052;-50
2021/06/24 07:46:08;;;;;;;0.00;0.00;;;19.20;71.10;;;;;;4208001;28;20048;-53
2021/06/24 07:48:32;;;;;;;0.38;0.38;;;19.20;71.10;;;;;;4191589;28;20059;-48
2021/06/24 07:50:54;;;;;;;0.00;0.00;;;19.30;71.10;;;;;;4191450;28;20056;-53
2021/06/24 07:53:17;;;;;;;0.10;0.10;;;19.20;71.00;;;;;;4191585;28;20074;-53
2021/06/24 07:55:39;;;;;;;0.00;0.00;;;19.20;71.00;;;;;;4191531;28;20052;-51
2021/06/24 07:58:02;;;;;;;0.03;0.03;;;19.20;71.00;;;;;;4207878;28;20040;-49
2021/06/24 08:00:25;;;;;;;0.00;0.00;;;19.20;70.90;;;;;;4206547;28;20052;-53
2021/06/24 08:02:47;;;;;;;0.00;0.00;;;19.30;70.90;;;;;;4208042;28;20063;-51
2021/06/24 08:05:14;;;;;;;0.00;0.00;;;19.30;70.90;;;;;;4207987;28;20062;-51
2021/06/24 08:07:36;;;;;;;0.03;0.03;;;19.30;70.80;;;;;;4205821;28;20048;-50
2021/06/24 08:10:03;;;;;;;0.00;0.00;;;19.30;70.70;;;;;;4208129;28;20071;-50
2021/06/24 08:12:24;;;;;;;0.03;0.03;;;19.30;70.70;;;;;;4207969;28;20458;-47
2021/06/24 08:14:46;;;;;;;0.00;0.00;;;19.30;70.60;;;;;;4207880;28;20044;-49
2021/06/24 08:17:09;;;;;;;0.03;0.03;;;19.30;70.60;;;;;;4207470;28;20619;-52
2021/06/24 08:19:31;;;;;;;0.32;0.32;;;19.30;70.60;;;;;;4207860;28;20051;-50
2021/06/24 08:21:58;;;;;;;0.00;0.00;;;19.30;70.60;;;;;;4207763;28;20052;-49
2021/06/24 08:24:21;;;;;;;0.10;0.10;;;19.30;70.60;;;;;;4207940;28;20059;-52
2021/06/24 08:26:43;;;;;;;0.00;0.00;;;19.30;70.60;;;;;;4207235;28;20070;-49
2021/06/24 08:29:05;;;;;;;0.00;0.00;;;19.30;70.60;;;;;;4207928;28;20044;-50
2021/06/24 08:31:27;;;;;;;0.00;0.00;;;19.30;70.60;;;;;;4207643;28;20071;-51
2021/06/24 08:33:49;;;;;;;0.00;0.00;;;19.30;70.50;;;;;;4207603;28;20156;-51
2021/06/24 08:36:11;;;;;;;0.52;0.52;;;19.30;70.50;;;;;;4207558;28;20151;-52
2021/06/24 08:38:34;;;;;;;0.22;0.13;;;19.40;70.50;;;;;;4207921;28;20060;-52
2021/06/24 08:40:57;;;;;;;0.00;0.00;;;19.30;70.40;;;;;;4207823;28;20123;-50
2021/06/24 08:43:19;;;;;;;0.20;0.20;;;19.40;70.50;;;;;;4209730;28;20052;-51
2021/06/24 08:45:41;;;;;;;0.00;0.00;;;19.30;70.40;;;;;;4210807;28;20472;-52
2021/06/24 08:48:03;;;;;;;0.00;0.00;;;19.30;70.40;;;;;;4211057;28;20058;-50
2021/06/24 08:50:25;;;;;;;0.10;0.10;;;19.30;70.40;;;;;;4210652;28;20493;-53
2021/06/24 08:52:50;;;;;;;0.30;0.30;;;19.30;70.30;;;;;;4210859;28;20505;-52
2021/06/24 08:55:14;;;;;;;0.45;0.45;;;19.40;70.30;;;;;;4210877;28;20052;-52
2021/06/24 08:57:36;;;;;;;0.10;0.10;;;19.30;70.20;;;;;;4194168;28;20056;-54
2021/06/24 09:00:00;;;;;;;0.08;0.08;;;19.40;70.20;;;;;;4194225;28;20059;-50
2021/06/24 09:02:37;;;;;;;0.00;0.00;;;19.40;70.20;;;;;;4208817;28;20055;-53
2021/06/24 09:05:00;;;;;;;0.00;0.00;;;19.40;70.20;;;;;;4210746;28;20067;-49
2021/06/24 09:07:22;;;;;;;0.00;0.00;;;19.40;70.10;;;;;;4202360;28;20568;-50
2021/06/24 09:09:51;;;;;;;0.00;0.00;;;19.40;70.10;;;;;;4210460;28;20493;-50
2021/06/24 09:12:16;;;;;;;0.00;0.00;;;19.40;70.10;;;;;;4209982;28;20056;-52
2021/06/24 09:14:43;;;;;;;0.00;0.00;;;19.40;71.00;;;;;;4210640;28;20120;-50
2021/06/24 09:17:06;;;;;;;0.00;0.00;;;19.40;70.00;;;;;;4210113;28;20136;-49
2021/06/24 09:19:28;;;;;;;0.10;0.10;;;19.40;70.00;;;;;;4210518;28;20635;-53
2021/06/24 09:21:57;;;;;;;0.00;0.00;;;19.40;70.00;;;;;;4208836;28;20063;-51
2021/06/24 09:24:24;;;;;;;0.00;0.00;;;19.40;69.90;;;;;;4209594;28;20147;-52
2021/06/24 09:26:47;;;;;;;0.00;0.00;;;19.40;69.90;;;;;;4210174;28;20063;-55
2021/06/24 09:29:16;;;;;;;0.00;0.00;;;19.40;69.90;;;;;;4210419;28;20048;-49
2021/06/24 09:31:42;;;;;;;0.00;0.00;;;19.40;69.90;;;;;;4210537;28;20473;-51
2021/06/24 09:34:07;;;;;;;0.00;0.00;;;19.40;69.90;;;;;;4210073;28;20040;-52
2021/06/24 09:36:35;;;;;;;0.20;0.20;;;19.40;69.90;;;;;;4209585;28;20550;-51
2021/06/24 09:38:56;;;;;;;0.00;0.00;;;19.40;69.90;;;;;;4210376;28;20044;-54
2021/06/24 09:41:19;;;;;;;0.43;0.43;;;19.40;69.80;;;;;;4193906;28;20086;-52
2021/06/24 09:43:42;;;;;;;0.28;0.28;;;19.40;70.60;;;;;;4209637;28;20131;-51
2021/06/24 09:46:08;;;;;;;0.00;0.00;;;19.40;69.80;;;;;;4209474;28;20043;-54
2021/06/24 09:48:36;;;;;;;0.55;0.28;;;19.40;69.60;;;;;;4208784;28;20120;-54
2021/06/24 09:51:23;;;;;;;0.00;0.00;;;19.40;69.60;;;;;;4209683;28;20063;-51
2021/06/24 09:54:04;;;;;;;0.03;0.03;;;19.40;69.60;;;;;;4209511;28;20059;-55
2021/06/24 09:56:32;;;;;;;0.10;0.10;;;19.40;69.70;;;;;;4222381;28;20047;-51
2021/06/24 09:58:56;;;;;;;0.00;0.00;;;19.40;69.60;;;;;;4209512;28;20127;-53
2021/06/24 10:01:30;;;;;;;0.10;0.10;;;19.40;69.60;;;;;;4209512;28;20536;-52
2021/06/24 10:03:53;;;;;;;0.00;0.00;;;19.40;69.60;;;;;;4209755;28;20517;-52
2021/06/24 10:06:16;;;;;;;0.00;0.00;;;19.40;70.50;;;;;;4209778;28;20484;-54
2021/06/24 10:08:37;;;;;;;0.00;0.00;;;19.40;69.50;;;;;;4192675;28;20564;-52
2021/06/24 10:10:59;;;;;;;0.22;0.22;;;19.40;69.50;;;;;;4198759;28;20050;-54
2021/06/24 10:13:29;;;;;;;0.00;0.00;;;19.50;69.40;;;;;;4209724;28;20391;-55
2021/06/24 10:15:53;;;;;;;0.00;0.00;;;19.50;69.30;;;;;;4208901;28;20139;-53
2021/06/24 10:18:19;;;;;;;0.03;0.03;;;19.50;69.30;;;;;;4209552;28;20052;-53
2021/06/24 10:20:42;;;;;;;0.00;0.00;;;19.50;69.20;;;;;;4209669;28;20055;-52
2021/06/24 10:23:08;;;;;;;0.00;0.00;;;19.50;69.10;;;;;;4208973;28;20478;-54
2021/06/24 10:25:30;;;;;;;0.00;0.00;;;19.50;69.00;;;;;;4201139;28;20051;-53
2021/06/24 10:27:55;;;;;;;0.00;0.00;;;19.60;68.90;;;;;;4209840;28;20051;-53
2021/06/24 10:30:20;;;;;;;0.00;0.00;;;19.60;68.80;;;;;;4208960;28;20135;-54
2021/06/24 10:32:45;;;;;;;0.13;0.13;;;19.60;68.60;;;;;;4207291;28;20048;-55
2021/06/24 10:35:24;;;;;;;0.00;0.00;;;19.70;68.60;;;;;;4209375;28;20054;-53
2021/06/24 10:37:50;;;;;;;0.00;0.00;;;19.70;68.60;;;;;;4209025;28;20146;-54
2021/06/24 10:40:25;;;;;;;0.00;0.00;;;19.70;68.40;;;;;;4208602;28;20069;-50
2021/06/24 10:42:52;;;;;;;0.00;0.00;;;19.70;68.30;;;;;;4208746;28;20841;-54
2021/06/24 10:45:17;;;;;;;0.00;0.00;;;19.80;69.00;;;;;;4208673;28;20048;-55
2021/06/24 10:47:40;;;;;;;0.00;0.00;;;19.80;67.90;;;;;;4209246;28;20129;-56
2021/06/24 10:50:41;;;;;;;0.00;0.00;;;19.80;67.80;;;;;;4208317;28;20060;-53
2021/06/24 10:53:33;;;;;;;0.00;0.00;;;19.80;67.70;;;;;;4208654;28;20551;-50
2021/06/24 10:55:56;;;;;;;0.00;0.00;;;19.80;67.70;;;;;;4205807;28;20048;-50
2021/06/24 10:58:34;;;;;;;0.00;0.00;;;19.90;67.70;;;;;;4208596;28;20521;-51
2021/06/24 11:00:57;;;;;;;0.00;0.00;;;19.90;67.70;;;;;;4208264;28;20101;-51
2021/06/24 11:03:26;;;;;;;0.00;0.00;;;19.90;67.80;;;;;;4208392;28;20104;-49
2021/06/24 11:05:52;;;;;;;0.00;0.00;;;19.90;67.60;;;;;;4207785;28;20048;-51
2021/06/24 11:08:15;;;;;;;0.28;0.22;;;19.90;67.50;;;;;;4208560;28;20067;-52
2021/06/24 11:10:56;;;;;;;0.00;0.00;;;19.90;67.30;;;;;;4208013;28;20051;-53
2021/06/24 11:13:44;;;;;;;0.00;0.00;;;19.90;67.40;;;;;;4208533;28;20116;-51
2021/06/24 11:16:07;;;;;;;0.30;0.25;;;19.90;67.50;;;;;;4208300;28;20127;-51
2021/06/24 11:18:57;;;;;;;0.00;0.00;;;19.90;67.50;;;;;;4208620;28;20074;-52
2021/06/24 11:21:55;;;;;;;1.27;0.55;;;20.00;67.50;;;;;;4207925;28;20046;-54
2021/06/24 11:24:20;;;;;;;0.00;0.00;;;19.90;67.40;;;;;;4191288;28;20048;-52
2021/06/24 11:26:45;;;;;;;0.00;0.00;;;20.00;67.50;;;;;;4191925;28;20662;-53
2021/06/24 11:29:24;;;;;;;0.00;0.00;;;20.00;67.50;;;;;;4191662;28;20474;-53
2021/06/24 11:31:51;;;;;;;0.00;0.00;;;20.00;67.50;;;;;;4207968;28;20044;-53
2021/06/24 11:34:20;;;;;;;0.30;0.30;;;20.00;67.30;;;;;;4206758;28;20501;-48
2021/06/24 11:36:48;;;;;;;0.10;0.10;;;20.00;67.20;;;;;;4208006;28;20055;-53
2021/06/24 11:39:10;;;;;;;0.00;0.00;;;20.00;67.20;;;;;;4208151;28;20050;-52
2021/06/24 11:41:32;;;;;;;0.00;0.00;;;20.00;67.10;;;;;;4208092;28;20138;-52
2021/06/24 11:44:01;;;;;;;0.00;0.00;;;20.10;67.10;;;;;;4207855;28;20056;-52
2021/06/24 11:46:24;;;;;;;0.00;0.00;;;20.10;67.00;;;;;;4208229;28;20052;-56
2021/06/24 11:48:54;;;;;;;0.00;0.00;;;20.10;67.10;;;;;;4208197;28;20129;-53
2021/06/24 12:05:17;;;;;;;0.00;0.00;;;20.10;66.70;;;;;;4191185;28;20052;-50
2021/06/24 12:07:40;;;;;;;0.10;0.10;;;20.20;66.70;;;;;;4174235;28;20049;-51
2021/06/24 12:10:05;;;;;;;0.10;0.10;;;20.20;66.60;;;;;;4207028;28;20067;-52
2021/06/24 12:12:30;;;;;;;0.00;0.00;;;20.20;66.80;;;;;;4207365;28;20044;-50
2021/06/24 12:14:55;;;;;;;0.00;0.00;;;20.20;66.60;;;;;;4202979;28;20067;-49
2021/06/24 12:17:21;;;;;;;5.57;0.73;;;20.20;66.60;;;;;;4209810;28;20101;-50
2021/06/24 12:19:58;;;;;;;0.10;0.10;;;20.20;66.60;;;;;;4206821;28;20044;-50
2021/06/24 12:22:22;;;;;;;0.00;0.00;;;20.20;66.70;;;;;;4193969;28;20430;-53
2021/06/24 12:24:46;;;;;;;0.10;0.10;;;20.20;66.70;;;;;;4201654;28;20059;-49
2021/06/24 12:27:27;;;;;;;0.00;0.00;;;20.20;66.80;;;;;;4209943;28;20054;-49
2021/06/24 12:29:54;;;;;;;0.10;0.10;;;20.10;66.70;;;;;;4208182;28;20406;-50
2021/06/24 12:32:17;;;;;;;0.00;0.00;;;20.20;66.60;;;;;;4211149;28;20376;-51
2021/06/24 12:34:40;;;;;;;0.00;0.00;;;20.20;66.70;;;;;;4210597;28;20058;-54
2021/06/24 12:37:02;;;;;;;0.28;0.28;;;20.20;66.70;;;;;;4224062;28;20522;-52
2021/06/24 12:39:24;;;;;;;0.00;0.00;;;20.20;66.60;;;;;;4210531;28;20502;-51
2021/06/24 12:41:48;;;;;;;0.00;0.00;;;20.20;66.90;;;;;;4210756;28;20456;-49
2021/06/24 12:44:10;;;;;;;0.03;0.03;;;20.20;66.70;;;;;;4210213;28;20055;-50
2021/06/24 12:46:37;;;;;;;0.00;0.00;;;20.20;66.60;;;;;;4210286;28;20048;-49
2021/06/24 12:49:03;;;;;;;0.00;0.00;;;20.20;66.50;;;;;;4210680;28;20043;-52
2021/06/24 12:51:25;;;;;;;0.00;0.00;;;20.30;66.50;;;;;;4210880;28;20097;-51
2021/06/24 12:53:50;;;;;;;0.00;0.00;;;20.30;66.50;;;;;;4210297;28;20054;-54